Time;durP1;ratioP1;P1;durP2;ratioP2;P2;SDS_P1;SDS_P2;PMS_P1;PMS_P2;Temp;Humidity;BMP_temperature;BMP_pressure;BME280_temperature;BME280_humidity;BME280_pressure;Samples;Min_cycle;Max_cycle;Signal;HPM_P1;HPM_P2
2023/01/01 00:00:10;;;;;;;0.10;0.10;;;12.00;84.50;;;;;;4992248;28;20143;-71
2023/01/01 00:02:36;;;;;;;0.00;0.00;;;12.00;84.40;;;;;;4993514;28;20874;-71
2023/01/01 00:05:02;;;;;;;0.68;0.68;;;12.00;84.60;;;;;;4994204;28;20129;-71
2023/01/01 00:07:28;;;;;;;0.35;0.35;;;11.90;84.70;;;;;;4974420;28;20054;-71
2023/01/01 00:12:38;;;;;;;1.67;1.38;;;12.00;84.60;;;;;;4991863;28;20051;-71
2023/01/01 00:15:04;;;;;;;1.23;1.15;;;12.00;84.70;;;;;;4992286;28;20065;-71
2023/01/01 00:17:30;;;;;;;0.00;0.00;;;12.00;84.70;;;;;;4958221;28;20125;-71
2023/01/01 00:19:56;;;;;;;0.13;0.10;;;12.10;84.20;;;;;;4991930;28;20141;-71
2023/01/01 00:22:21;;;;;;;0.25;0.25;;;12.10;84.10;;;;;;4994349;28;20053;-72
2023/01/01 00:24:47;;;;;;;0.30;0.30;;;12.20;84.00;;;;;;4991847;28;20499;-71
2023/01/01 00:27:12;;;;;;;1.60;1.08;;;12.20;83.90;;;;;;4991924;28;20491;-71
2023/01/01 00:29:38;;;;;;;0.43;0.43;;;12.20;83.90;;;;;;5009970;28;20096;-72
2023/01/01 00:32:04;;;;;;;1.98;1.08;;;12.20;84.10;;;;;;5004849;28;20379;-70
2023/01/01 00:34:29;;;;;;;0.00;0.00;;;12.10;83.80;;;;;;4991776;28;20398;-71
2023/01/01 00:36:56;;;;;;;0.43;0.43;;;12.10;83.80;;;;;;4991185;28;20133;-70
2023/01/01 00:39:22;;;;;;;2.38;2.03;;;12.10;83.60;;;;;;4991405;28;20514;-69
2023/01/01 00:41:47;;;;;;;0.03;0.03;;;12.10;84.00;;;;;;4995733;28;20045;-71
2023/01/01 00:44:13;;;;;;;0.30;0.30;;;12.00;84.90;;;;;;4994301;28;20447;-70
2023/01/01 00:46:39;;;;;;;0.25;0.25;;;11.90;85.30;;;;;;5004517;28;20057;-72
2023/01/01 00:49:04;;;;;;;0.55;0.50;;;11.80;85.70;;;;;;5009298;28;20073;-71
2023/01/01 00:51:30;;;;;;;1.40;1.30;;;11.70;85.80;;;;;;5004116;28;20775;-71
2023/01/01 00:53:55;;;;;;;2.85;0.95;;;11.60;85.80;;;;;;4983441;28;20055;-72
2023/01/01 00:56:21;;;;;;;0.30;0.30;;;11.60;86.00;;;;;;5002891;28;20061;-71
2023/01/01 00:58:47;;;;;;;5.82;3.88;;;11.60;86.20;;;;;;5007473;28;20077;-71
2023/01/01 01:01:12;;;;;;;0.15;0.15;;;11.60;86.70;;;;;;5006628;28;20181;-71
2023/01/01 01:03:38;;;;;;;0.30;0.30;;;11.80;86.90;;;;;;4972954;28;20058;-71
2023/01/01 01:06:04;;;;;;;0.30;0.30;;;12.00;86.90;;;;;;5002587;28;20046;-71
2023/01/01 01:08:31;;;;;;;0.28;0.28;;;12.20;86.80;;;;;;5009587;28;20046;-72
2023/01/01 01:11:08;;;;;;;0.13;0.13;;;12.40;86.60;;;;;;4992474;28;20064;-71
2023/01/01 01:13:34;;;;;;;1.20;1.10;;;12.60;86.20;;;;;;5010478;28;20075;-72
2023/01/01 01:16:00;;;;;;;0.93;0.90;;;12.70;85.80;;;;;;5009455;28;20046;-72
2023/01/01 01:18:25;;;;;;;0.00;0.00;;;12.80;86.30;;;;;;5009332;28;20232;-71
2023/01/01 01:20:52;;;;;;;0.00;0.00;;;12.80;87.00;;;;;;4981540;28;20133;-71
2023/01/01 01:23:18;;;;;;;0.00;0.00;;;12.70;87.70;;;;;;5002449;28;20091;-71
2023/01/01 01:25:44;;;;;;;0.10;0.10;;;12.70;88.20;;;;;;5006802;28;20103;-71
2023/01/01 01:28:10;;;;;;;0.80;0.77;;;12.60;88.40;;;;;;5003524;28;20552;-72
2023/01/01 01:30:39;;;;;;;0.32;0.32;;;12.50;88.80;;;;;;5004687;28;20050;-72
2023/01/01 01:33:05;;;;;;;0.43;0.43;;;12.50;88.80;;;;;;5004645;28;20038;-71
2023/01/01 01:35:31;;;;;;;0.93;0.93;;;12.40;88.90;;;;;;4975168;28;20088;-72
2023/01/01 01:37:57;;;;;;;4.75;2.75;;;12.40;89.30;;;;;;4998583;28;20121;-70
2023/01/01 01:40:23;;;;;;;0.08;0.08;;;12.30;89.40;;;;;;5000307;28;20130;-71
2023/01/01 01:42:50;;;;;;;10.13;4.28;;;12.30;89.80;;;;;;5008099;28;20096;-70
2023/01/01 01:45:16;;;;;;;0.00;0.00;;;12.30;90.00;;;;;;4990926;28;20132;-71
2023/01/01 01:47:46;;;;;;;0.00;0.00;;;12.30;90.20;;;;;;5006684;28;20434;-70
2023/01/01 01:50:31;;;;;;;0.75;0.75;;;12.30;90.00;;;;;;4988449;28;20811;-71
2023/01/01 01:53:06;;;;;;;0.00;0.00;;;12.20;90.00;;;;;;4998911;28;20049;-70
2023/01/01 01:55:38;;;;;;;1.10;1.08;;;12.20;90.20;;;;;;5008308;28;20048;-71
2023/01/01 01:58:06;;;;;;;0.00;0.00;;;12.30;90.10;;;;;;4999884;28;20038;-71
2023/01/01 02:00:33;;;;;;;2.20;1.73;;;12.30;89.90;;;;;;5009077;28;20096;-71
2023/01/01 02:03:17;;;;;;;0.70;0.60;;;12.30;89.80;;;;;;5004510;28;20052;-70
2023/01/01 02:05:44;;;;;;;7.53;3.20;;;12.30;89.80;;;;;;5004976;28;20049;-70
2023/01/01 02:08:13;;;;;;;0.00;0.00;;;12.40;89.60;;;;;;5008780;28;20048;-71
2023/01/01 02:10:38;;;;;;;0.00;0.00;;;12.40;89.40;;;;;;5008487;28;20049;-70
2023/01/01 02:13:04;;;;;;;2.28;1.55;;;12.40;89.00;;;;;;5007175;28;20034;-71
2023/01/01 02:15:37;;;;;;;0.00;0.00;;;12.40;89.10;;;;;;4972324;28;20045;-70
2023/01/01 02:18:10;;;;;;;0.00;0.00;;;12.40;89.20;;;;;;4988939;28;20052;-70
2023/01/01 02:20:57;;;;;;;0.00;0.00;;;12.40;89.20;;;;;;5007947;28;20038;-71
2023/01/01 02:23:32;;;;;;;0.30;0.30;;;12.40;89.30;;;;;;5005455;28;20120;-70
2023/01/01 02:26:04;;;;;;;0.00;0.00;;;12.30;89.40;;;;;;4974906;28;20091;-70
2023/01/01 02:28:50;;;;;;;0.00;0.00;;;12.40;89.40;;;;;;5007575;28;20045;-70
2023/01/01 02:31:22;;;;;;;0.00;0.00;;;12.30;89.70;;;;;;5007990;28;20135;-71
2023/01/01 02:33:48;;;;;;;0.00;0.00;;;12.30;89.80;;;;;;5008011;28;20203;-71
2023/01/01 02:36:14;;;;;;;0.10;0.10;;;12.40;89.70;;;;;;5007782;28;20057;-71
2023/01/01 02:38:44;;;;;;;0.00;0.00;;;12.30;89.80;;;;;;5005134;28;20410;-70
2023/01/01 02:41:12;;;;;;;0.00;0.00;;;12.30;90.30;;;;;;5005500;28;20152;-71
2023/01/01 02:43:40;;;;;;;0.03;0.03;;;12.10;90.60;;;;;;4990050;28;20057;-71
2023/01/01 02:46:08;;;;;;;0.82;0.82;;;12.10;90.90;;;;;;5006833;28;20510;-70
2023/01/01 02:48:48;;;;;;;0.30;0.30;;;12.10;90.90;;;;;;4989301;28;20076;-71
2023/01/01 02:51:22;;;;;;;0.00;0.00;;;12.00;91.00;;;;;;5006896;28;20060;-70
2023/01/01 02:54:06;;;;;;;1.17;1.08;;;11.90;90.90;;;;;;5007640;28;20041;-70
2023/01/01 02:56:36;;;;;;;0.00;0.00;;;11.90;90.80;;;;;;4990479;28;20052;-71
2023/01/01 03:02:35;;;;;;;0.00;0.00;;;11.80;90.90;;;;;;4947205;29;20051;-70
2023/01/01 03:05:17;;;;;;;0.00;0.00;;;11.90;91.20;;;;;;4998732;28;20529;-71
2023/01/01 03:07:58;;;;;;;0.65;0.57;;;11.90;91.80;;;;;;5006298;28;20045;-70
2023/01/01 03:10:39;;;;;;;0.10;0.10;;;11.90;92.00;;;;;;5007784;28;20041;-70
2023/01/01 03:13:31;;;;;;;0.47;0.47;;;12.00;92.10;;;;;;5006527;28;20082;-71
2023/01/01 03:16:30;;;;;;;4.32;0.80;;;12.00;92.10;;;;;;4986381;28;20034;-70
2023/01/01 03:19:11;;;;;;;1.73;1.65;;;12.00;91.90;;;;;;5004504;28;20700;-70
2023/01/01 03:21:47;;;;;;;0.82;0.82;;;11.90;91.90;;;;;;5010443;28;20702;-70
2023/01/01 03:24:38;;;;;;;0.00;0.00;;;11.90;92.10;;;;;;5011146;28;20099;-70
2023/01/01 03:27:17;;;;;;;0.00;0.00;;;11.80;92.20;;;;;;4960392;28;20054;-71
2023/01/01 03:29:45;;;;;;;0.10;0.10;;;11.80;92.20;;;;;;5009277;28;20042;-71
2023/01/01 03:32:15;;;;;;;0.38;0.38;;;11.70;92.00;;;;;;4977946;28;20034;-70
2023/01/01 03:34:46;;;;;;;0.55;0.55;;;11.70;92.00;;;;;;5010571;28;20113;-70
2023/01/01 03:37:15;;;;;;;0.10;0.10;;;11.70;91.80;;;;;;5007535;28;20046;-70
2023/01/01 03:39:46;;;;;;;0.15;0.15;;;11.60;91.80;;;;;;5009916;28;20045;-71
2023/01/01 03:42:35;;;;;;;0.10;0.10;;;11.60;91.90;;;;;;5008782;28;20045;-70
2023/01/01 03:45:11;;;;;;;0.00;0.00;;;11.60;92.00;;;;;;5010783;28;20132;-70
2023/01/01 03:47:37;;;;;;;1.80;1.70;;;11.60;91.90;;;;;;4992145;28;20053;-70
2023/01/01 03:50:03;;;;;;;0.85;0.85;;;11.60;92.00;;;;;;5011293;28;20506;-70
2023/01/01 03:52:54;;;;;;;4.55;0.65;;;11.60;92.00;;;;;;5008292;28;20494;-70
2023/01/01 03:55:31;;;;;;;0.00;0.00;;;11.50;92.10;;;;;;5008788;28;20505;-70
2023/01/01 03:58:08;;;;;;;0.05;0.05;;;11.50;92.20;;;;;;5009909;28;20046;-70
2023/01/01 04:00:49;;;;;;;0.57;0.57;;;11.60;92.00;;;;;;4989818;28;20045;-70
2023/01/01 04:03:24;;;;;;;0.00;0.00;;;11.50;92.00;;;;;;5009395;28;20084;-70
2023/01/01 04:05:50;;;;;;;7.57;4.28;;;11.50;92.20;;;;;;4976380;28;20042;-70
2023/01/01 04:08:16;;;;;;;0.00;0.00;;;11.50;92.30;;;;;;4992766;28;20038;-70
2023/01/01 04:10:47;;;;;;;0.00;0.00;;;11.50;92.50;;;;;;5009566;28;20037;-70
2023/01/01 04:13:13;;;;;;;2.37;2.23;;;11.50;92.50;;;;;;5010434;28;20045;-71
2023/01/01 04:15:38;;;;;;;0.00;0.00;;;11.50;92.70;;;;;;5010341;28;20060;-70
2023/01/01 04:18:04;;;;;;;0.35;0.35;;;11.50;92.60;;;;;;5008959;28;20077;-69
2023/01/01 04:20:30;;;;;;;0.03;0.03;;;11.50;92.60;;;;;;4990880;28;20037;-70
2023/01/01 04:22:57;;;;;;;1.15;1.00;;;11.50;92.60;;;;;;4976238;28;20045;-70
2023/01/01 04:25:23;;;;;;;0.25;0.25;;;11.40;92.50;;;;;;5008038;28;20046;-70
2023/01/01 04:27:48;;;;;;;0.00;0.00;;;11.40;92.40;;;;;;4974284;28;20048;-71
2023/01/01 04:30:14;;;;;;;2.15;1.50;;;11.40;92.30;;;;;;5008670;28;20069;-70
2023/01/01 04:32:40;;;;;;;1.48;1.38;;;11.40;92.20;;;;;;5009925;28;20041;-70
2023/01/01 04:35:07;;;;;;;0.75;0.75;;;11.30;91.90;;;;;;5009501;28;20104;-70
2023/01/01 04:37:36;;;;;;;4.15;2.45;;;11.30;91.90;;;;;;5008245;28;20042;-70
2023/01/01 04:40:02;;;;;;;0.00;0.00;;;11.30;91.60;;;;;;4973007;28;20045;-70
2023/01/01 04:42:28;;;;;;;2.10;1.85;;;11.40;91.60;;;;;;5006943;28;20646;-71
2023/01/01 04:44:53;;;;;;;0.75;0.55;;;11.40;91.40;;;;;;5009965;28;20046;-69
2023/01/01 04:47:19;;;;;;;0.93;0.55;;;11.30;91.10;;;;;;5009363;28;20701;-69
2023/01/01 04:49:45;;;;;;;0.10;0.10;;;11.40;90.90;;;;;;5010097;28;20082;-70
2023/01/01 04:52:10;;;;;;;0.00;0.00;;;11.50;90.80;;;;;;5010177;28;20044;-70
2023/01/01 04:54:36;;;;;;;0.00;0.00;;;11.50;90.50;;;;;;5010164;28;20084;-70
2023/01/01 04:57:01;;;;;;;0.35;0.35;;;11.50;90.60;;;;;;5009148;28;20034;-70
2023/01/01 04:59:29;;;;;;;0.00;0.00;;;11.50;90.60;;;;;;4992703;28;20406;-70
2023/01/01 05:01:55;;;;;;;0.00;0.00;;;11.50;90.60;;;;;;4990692;28;20062;-70
2023/01/01 05:04:20;;;;;;;0.00;0.00;;;11.50;90.60;;;;;;4992596;28;20494;-71
2023/01/01 05:06:46;;;;;;;0.03;0.03;;;11.50;90.70;;;;;;5009634;28;20076;-71
2023/01/01 05:09:12;;;;;;;36.08;1.45;;;11.50;90.70;;;;;;4976137;28;20478;-71
2023/01/01 05:11:37;;;;;;;0.00;0.00;;;11.50;90.50;;;;;;4992363;28;20046;-71
2023/01/01 05:14:04;;;;;;;0.08;0.08;;;11.50;90.50;;;;;;5009725;28;20609;-70
2023/01/01 05:16:32;;;;;;;0.00;0.00;;;11.50;90.10;;;;;;4991381;28;20045;-71
2023/01/01 05:18:58;;;;;;;0.00;0.00;;;11.50;90.10;;;;;;4972804;28;20081;-71
2023/01/01 05:21:30;;;;;;;1.20;1.10;;;11.50;90.10;;;;;;5008999;28;20084;-70
2023/01/01 05:23:58;;;;;;;0.00;0.00;;;11.50;89.70;;;;;;4992345;28;20410;-70
2023/01/01 05:26:30;;;;;;;1.17;1.08;;;11.50;89.40;;;;;;5009230;28;20052;-69
2023/01/01 05:28:56;;;;;;;0.10;0.10;;;11.50;89.10;;;;;;5008274;28;20077;-70
2023/01/01 05:31:25;;;;;;;3.03;0.95;;;11.50;88.80;;;;;;5009915;28;20096;-70
2023/01/01 05:33:51;;;;;;;0.00;0.00;;;11.50;88.60;;;;;;5009335;28;20045;-70
2023/01/01 05:36:28;;;;;;;0.32;0.32;;;11.50;88.00;;;;;;5007431;28;20384;-70
2023/01/01 05:38:54;;;;;;;0.40;0.40;;;11.50;87.70;;;;;;4975183;28;20096;-70
2023/01/01 05:41:21;;;;;;;0.00;0.00;;;11.40;87.60;;;;;;4975661;28;20046;-70
2023/01/01 05:43:47;;;;;;;0.00;0.00;;;11.40;87.70;;;;;;5009528;28;20058;-70
2023/01/01 05:46:17;;;;;;;0.22;0.22;;;11.30;87.60;;;;;;5008123;28;20047;-70
2023/01/01 05:48:43;;;;;;;0.10;0.10;;;11.30;87.70;;;;;;4999320;28;20044;-70
2023/01/01 05:51:12;;;;;;;0.10;0.10;;;11.30;87.40;;;;;;4998260;28;20050;-70
2023/01/01 05:53:38;;;;;;;0.00;0.00;;;11.30;87.20;;;;;;4992721;28;20057;-71
2023/01/01 05:56:05;;;;;;;0.00;0.00;;;11.20;87.40;;;;;;4996693;28;20042;-70
2023/01/01 05:58:33;;;;;;;0.00;0.00;;;11.20;87.20;;;;;;4999705;28;20041;-71
2023/01/01 06:01:11;;;;;;;0.00;0.00;;;11.10;87.00;;;;;;4999589;28;20073;-71
2023/01/01 06:03:37;;;;;;;0.00;0.00;;;11.20;86.80;;;;;;4991681;28;20116;-72
2023/01/01 06:06:07;;;;;;;0.10;0.10;;;11.20;86.90;;;;;;4998783;28;20860;-71
2023/01/01 06:08:33;;;;;;;0.00;0.00;;;11.20;86.40;;;;;;4994980;28;20050;-71
2023/01/01 06:11:01;;;;;;;0.03;0.03;;;11.20;86.30;;;;;;4996850;28;20050;-72
2023/01/01 06:13:27;;;;;;;0.22;0.22;;;11.10;86.10;;;;;;4991554;28;20179;-71
2023/01/01 06:15:54;;;;;;;0.00;0.00;;;11.20;86.20;;;;;;4996334;28;20519;-70
2023/01/01 06:18:20;;;;;;;0.47;0.47;;;11.10;86.10;;;;;;4982173;28;20113;-71
2023/01/01 06:20:46;;;;;;;6.60;3.03;;;11.10;86.00;;;;;;4976077;28;20507;-72
2023/01/01 06:23:11;;;;;;;0.00;0.00;;;11.10;85.90;;;;;;4990958;28;20585;-68
2023/01/01 06:25:37;;;;;;;0.00;0.00;;;11.10;86.00;;;;;;4996732;28;20034;-69
2023/01/01 06:28:03;;;;;;;0.00;0.00;;;11.10;85.90;;;;;;4972620;28;20072;-70
2023/01/01 06:30:30;;;;;;;0.00;0.00;;;11.10;86.00;;;;;;4971829;28;20442;-71
2023/01/01 06:32:55;;;;;;;0.00;0.00;;;11.10;85.90;;;;;;4995282;28;20046;-69
2023/01/01 06:35:21;;;;;;;0.00;0.00;;;11.10;85.90;;;;;;4990596;28;20038;-69
2023/01/01 06:37:47;;;;;;;0.03;0.03;;;11.10;86.10;;;;;;4967617;28;20101;-70
2023/01/01 06:40:13;;;;;;;0.10;0.10;;;11.00;86.20;;;;;;4989777;28;20133;-69
2023/01/01 06:42:39;;;;;;;0.00;0.00;;;11.10;86.40;;;;;;4993261;28;20503;-69
2023/01/01 06:45:05;;;;;;;0.40;0.40;;;11.00;86.40;;;;;;4997765;28;20060;-71
2023/01/01 06:47:34;;;;;;;0.08;0.08;;;11.10;86.40;;;;;;4987162;28;20061;-69
2023/01/01 06:49:59;;;;;;;0.00;0.00;;;11.00;86.60;;;;;;4994848;28;20054;-70
2023/01/01 06:52:25;;;;;;;0.00;0.00;;;11.00;86.60;;;;;;4988191;28;20038;-69
2023/01/01 06:54:50;;;;;;;0.00;0.00;;;11.10;86.70;;;;;;4997875;28;20108;-69
2023/01/01 06:57:16;;;;;;;0.63;0.45;;;11.00;86.70;;;;;;4989090;28;20034;-69
2023/01/01 06:59:42;;;;;;;0.00;0.00;;;11.10;86.80;;;;;;4970991;28;20049;-69
2023/01/01 07:02:10;;;;;;;0.50;0.38;;;11.00;87.00;;;;;;4987361;28;20057;-69
2023/01/01 07:04:36;;;;;;;0.00;0.00;;;11.00;87.00;;;;;;4987247;28;20418;-70
2023/01/01 07:07:01;;;;;;;0.50;0.38;;;11.00;87.10;;;;;;4988283;28;20030;-70
2023/01/01 07:09:27;;;;;;;0.00;0.00;;;11.00;87.10;;;;;;4976359;28;21947;-70
2023/01/01 07:11:53;;;;;;;0.10;0.10;;;10.90;87.40;;;;;;4983277;28;20518;-69
2023/01/01 07:14:18;;;;;;;0.10;0.10;;;10.90;87.10;;;;;;4988819;28;20046;-69
2023/01/01 07:16:44;;;;;;;1.27;1.17;;;10.90;87.30;;;;;;4988854;28;20150;-70
2023/01/01 07:19:09;;;;;;;0.00;0.00;;;10.80;87.50;;;;;;4988665;28;20039;-70
2023/01/01 07:21:42;;;;;;;0.00;0.00;;;10.80;87.60;;;;;;4988797;28;20055;-69
2023/01/01 07:24:10;;;;;;;0.05;0.05;;;10.90;87.30;;;;;;4971053;28;20112;-69
2023/01/01 07:26:35;;;;;;;0.25;0.25;;;10.90;87.40;;;;;;4971282;28;20058;-70
2023/01/01 07:29:01;;;;;;;1.65;0.95;;;10.90;87.20;;;;;;4988817;28;20408;-70
2023/01/01 07:31:26;;;;;;;1.00;1.00;;;10.80;87.10;;;;;;4988522;28;20090;-68
2023/01/01 07:33:52;;;;;;;0.10;0.10;;;10.90;87.00;;;;;;4989027;28;20039;-69
2023/01/01 07:36:18;;;;;;;0.00;0.00;;;10.90;86.80;;;;;;4988478;28;20550;-69
2023/01/01 07:38:43;;;;;;;5.65;2.72;;;10.90;86.90;;;;;;4970673;28;20052;-69
2023/01/01 07:41:09;;;;;;;0.00;0.00;;;10.80;86.80;;;;;;4970509;28;20058;-69
2023/01/01 07:43:34;;;;;;;0.00;0.00;;;10.90;86.80;;;;;;4991171;28;20050;-69
2023/01/01 07:46:00;;;;;;;0.00;0.00;;;10.80;86.70;;;;;;4971484;28;20069;-69
2023/01/01 07:48:27;;;;;;;0.00;0.00;;;10.80;86.50;;;;;;4991148;28;20042;-69
2023/01/01 07:50:52;;;;;;;0.00;0.00;;;10.80;86.50;;;;;;5006244;28;20066;-69
2023/01/01 07:53:18;;;;;;;0.00;0.00;;;10.80;86.60;;;;;;4973515;28;20065;-70
2023/01/01 07:55:44;;;;;;;7.18;1.45;;;10.90;86.40;;;;;;5003503;28;20058;-68
2023/01/01 07:58:11;;;;;;;0.85;0.55;;;10.80;86.60;;;;;;4997636;28;20050;-69
2023/01/01 08:00:37;;;;;;;0.00;0.00;;;10.90;86.80;;;;;;4987552;28;20058;-69
2023/01/01 08:03:03;;;;;;;2.30;2.10;;;10.90;86.90;;;;;;4976236;28;20080;-68
2023/01/01 08:05:28;;;;;;;0.00;0.00;;;10.90;87.10;;;;;;4994785;28;20145;-70
2023/01/01 08:07:54;;;;;;;0.00;0.00;;;10.90;87.40;;;;;;4998854;28;20629;-68
2023/01/01 08:10:20;;;;;;;0.00;0.00;;;10.90;87.60;;;;;;4999082;28;20050;-69
2023/01/01 08:12:46;;;;;;;7.82;3.30;;;10.80;87.80;;;;;;4995801;28;20054;-70
2023/01/01 08:15:14;;;;;;;0.40;0.40;;;10.80;87.80;;;;;;4977958;28;20427;-70
2023/01/01 08:17:40;;;;;;;0.00;0.00;;;10.80;87.90;;;;;;5002833;28;20141;-70
2023/01/01 08:20:06;;;;;;;0.00;0.00;;;10.90;87.90;;;;;;4999313;28;20161;-69
2023/01/01 08:22:32;;;;;;;0.00;0.00;;;10.90;88.00;;;;;;5009089;28;20450;-69
2023/01/01 08:24:57;;;;;;;0.00;0.00;;;10.90;88.00;;;;;;4999397;28;20056;-69
2023/01/01 08:27:23;;;;;;;0.10;0.10;;;10.80;87.90;;;;;;4997624;28;20042;-69
2023/01/01 08:29:49;;;;;;;1.75;0.95;;;10.80;87.90;;;;;;4983673;28;20050;-69
2023/01/01 08:32:14;;;;;;;9.23;1.92;;;10.80;88.00;;;;;;4992982;28;20045;-69
2023/01/01 08:34:40;;;;;;;0.00;0.00;;;10.80;87.90;;;;;;5011120;28;20086;-70
2023/01/01 08:37:10;;;;;;;0.13;0.13;;;10.80;88.00;;;;;;4997835;28;20049;-69
2023/01/01 08:39:35;;;;;;;0.00;0.00;;;10.80;88.00;;;;;;4996184;28;20507;-69
2023/01/01 08:42:01;;;;;;;0.00;0.00;;;10.80;88.00;;;;;;4993900;28;20039;-69
2023/01/01 08:44:26;;;;;;;0.85;0.45;;;10.80;88.00;;;;;;4993132;28;20520;-69
2023/01/01 08:46:52;;;;;;;1.10;0.93;;;10.80;87.70;;;;;;5001299;28;20055;-69
2023/01/01 08:49:18;;;;;;;0.00;0.00;;;10.80;87.90;;;;;;5004726;28;20051;-70
2023/01/01 08:51:43;;;;;;;0.40;0.35;;;10.80;88.10;;;;;;4975311;28;20046;-69
2023/01/01 08:54:09;;;;;;;0.70;0.70;;;10.80;88.00;;;;;;4992813;28;20054;-69
2023/01/01 08:56:36;;;;;;;0.35;0.35;;;10.80;88.00;;;;;;4990501;28;20050;-71
2023/01/01 08:59:02;;;;;;;0.00;0.00;;;10.80;87.90;;;;;;4992162;28;20526;-71
2023/01/01 09:01:28;;;;;;;0.03;0.03;;;10.70;88.00;;;;;;4960694;28;20047;-72
2023/01/01 09:03:53;;;;;;;0.10;0.10;;;10.80;87.90;;;;;;4991070;28;20053;-72
2023/01/01 09:06:19;;;;;;;0.00;0.00;;;10.70;87.80;;;;;;4997608;28;20057;-72
2023/01/01 09:08:45;;;;;;;0.00;0.00;;;10.80;87.80;;;;;;4991908;28;20042;-72
2023/01/01 09:11:23;;;;;;;3.50;3.20;;;10.70;87.80;;;;;;4992161;28;20113;-72
2023/01/01 09:13:49;;;;;;;0.00;0.00;;;10.70;87.70;;;;;;4973600;28;20137;-72
2023/01/01 09:16:15;;;;;;;0.47;0.47;;;10.80;87.80;;;;;;4998128;28;20143;-72
2023/01/01 09:18:40;;;;;;;0.20;0.20;;;10.70;87.80;;;;;;4990940;28;20851;-72
2023/01/01 09:21:06;;;;;;;0.00;0.00;;;10.70;87.70;;;;;;4993231;28;20074;-72
2023/01/01 09:23:31;;;;;;;0.50;0.50;;;10.70;87.80;;;;;;4990731;28;20050;-72
2023/01/01 09:26:05;;;;;;;0.00;0.00;;;10.70;87.80;;;;;;4984344;28;20088;-72
2023/01/01 09:28:31;;;;;;;0.30;0.30;;;10.60;88.00;;;;;;4990014;28;20526;-72
2023/01/01 09:30:56;;;;;;;0.00;0.00;;;10.60;88.10;;;;;;4997533;28;20137;-72
2023/01/01 09:33:22;;;;;;;3.63;3.30;;;10.60;88.10;;;;;;4973595;28;20100;-72
2023/01/01 09:35:48;;;;;;;0.20;0.20;;;10.60;88.10;;;;;;4990493;28;20101;-73
2023/01/01 09:38:13;;;;;;;0.00;0.00;;;10.70;88.10;;;;;;4990987;28;20042;-71
2023/01/01 09:41:18;;;;;;;0.43;0.43;;;10.80;88.00;;;;;;5000290;28;20037;-72
2023/01/01 09:44:21;;;;;;;0.00;0.00;;;10.70;88.00;;;;;;4971903;28;20061;-72
2023/01/01 09:46:48;;;;;;;0.32;0.32;;;10.70;88.00;;;;;;4969303;28;20157;-71
2023/01/01 09:49:20;;;;;;;0.00;0.00;;;10.70;87.90;;;;;;4991064;28;20047;-70
2023/01/01 09:51:53;;;;;;;0.00;0.00;;;10.70;88.00;;;;;;4993041;28;20042;-71
2023/01/01 09:54:32;;;;;;;0.73;0.73;;;10.70;88.00;;;;;;4990232;28;20081;-71
2023/01/01 09:56:59;;;;;;;1.88;1.30;;;10.70;87.90;;;;;;4992748;28;20105;-71
2023/01/01 09:59:26;;;;;;;0.52;0.52;;;10.70;87.90;;;;;;4955951;28;20128;-72
2023/01/01 10:01:58;;;;;;;0.73;0.73;;;10.70;87.80;;;;;;4989983;28;20045;-72
2023/01/01 10:04:58;;;;;;;0.10;0.10;;;10.70;87.70;;;;;;4980432;28;20112;-71
2023/01/01 10:07:37;;;;;;;0.00;0.00;;;10.80;87.70;;;;;;4970573;28;20088;-71
2023/01/01 10:10:31;;;;;;;0.00;0.00;;;10.80;87.60;;;;;;4979877;28;20050;-70
2023/01/01 10:13:24;;;;;;;0.00;0.00;;;10.80;87.50;;;;;;4983667;28;20038;-70
2023/01/01 10:16:19;;;;;;;1.88;1.30;;;10.90;87.50;;;;;;4967465;28;20050;-70
2023/01/01 10:18:49;;;;;;;0.00;0.00;;;10.90;87.20;;;;;;4981145;28;20561;-70
2023/01/01 10:21:20;;;;;;;0.08;0.08;;;11.00;87.20;;;;;;4990460;28;20078;-70
2023/01/01 10:24:01;;;;;;;0.00;0.00;;;10.90;86.90;;;;;;4990025;28;20866;-70
2023/01/01 10:26:30;;;;;;;1.08;0.98;;;10.90;86.70;;;;;;4957075;28;20050;-71
2023/01/01 10:29:18;;;;;;;0.05;0.05;;;10.90;86.70;;;;;;4989831;28;20070;-70
2023/01/01 10:31:47;;;;;;;0.00;0.00;;;10.90;86.70;;;;;;4989730;28;20050;-70
2023/01/01 10:34:20;;;;;;;0.00;0.00;;;10.90;86.70;;;;;;4989533;28;20046;-71
2023/01/01 10:36:46;;;;;;;0.00;0.00;;;10.80;86.80;;;;;;5003217;28;20388;-70
2023/01/01 10:39:15;;;;;;;0.00;0.00;;;10.80;86.80;;;;;;4997220;28;20049;-70
2023/01/01 10:41:41;;;;;;;0.10;0.10;;;10.80;86.60;;;;;;4981595;28;20069;-71
2023/01/01 10:44:07;;;;;;;0.70;0.70;;;10.80;86.60;;;;;;4987498;28;20463;-70
2023/01/01 10:46:38;;;;;;;0.00;0.00;;;10.80;86.50;;;;;;4969423;28;20065;-71
2023/01/01 10:49:10;;;;;;;0.00;0.00;;;10.80;86.40;;;;;;4986702;28;20045;-71
2023/01/01 10:51:50;;;;;;;0.00;0.00;;;10.90;86.60;;;;;;4948128;28;20078;-71
2023/01/01 10:54:39;;;;;;;0.00;0.00;;;10.80;86.60;;;;;;4968376;28;20047;-71
2023/01/01 10:57:17;;;;;;;0.00;0.00;;;10.80;86.70;;;;;;4980411;28;20140;-70
2023/01/01 10:59:44;;;;;;;0.00;0.00;;;10.80;86.90;;;;;;4986317;28;20062;-70
2023/01/01 11:02:24;;;;;;;0.00;0.00;;;10.80;86.80;;;;;;4987507;28;20125;-71
2023/01/01 11:04:51;;;;;;;3.53;1.38;;;10.80;86.70;;;;;;4986728;28;20100;-70
2023/01/01 11:07:32;;;;;;;0.00;0.00;;;10.70;86.50;;;;;;4952839;28;20060;-70
2023/01/01 11:10:04;;;;;;;0.43;0.43;;;10.70;86.70;;;;;;4978502;28;20090;-71
2023/01/01 11:12:35;;;;;;;0.00;0.00;;;10.80;86.70;;;;;;4967292;28;20487;-70
2023/01/01 11:15:01;;;;;;;0.00;0.00;;;10.80;86.70;;;;;;4984369;28;20058;-70
2023/01/01 11:17:29;;;;;;;0.00;0.00;;;10.80;86.40;;;;;;4984466;28;20053;-70
2023/01/01 11:19:57;;;;;;;0.00;0.00;;;10.90;86.10;;;;;;4981707;28;20046;-70
2023/01/01 11:22:47;;;;;;;0.10;0.10;;;10.90;85.90;;;;;;4982790;28;20142;-70
2023/01/01 11:25:28;;;;;;;0.00;0.00;;;10.90;85.90;;;;;;4961329;28;20058;-70
2023/01/01 11:28:12;;;;;;;0.00;0.00;;;10.90;86.10;;;;;;4986196;28;20035;-70
2023/01/01 11:30:38;;;;;;;0.03;0.03;;;11.00;85.60;;;;;;4982417;28;20121;-69
2023/01/01 11:33:04;;;;;;;1.52;0.63;;;11.00;85.60;;;;;;4987532;28;20157;-70
2023/01/01 11:35:48;;;;;;;0.22;0.22;;;11.10;85.50;;;;;;4988467;28;20046;-69
2023/01/01 11:38:19;;;;;;;0.00;0.00;;;11.00;85.70;;;;;;4991062;28;20042;-69
2023/01/01 11:40:49;;;;;;;0.05;0.05;;;11.00;85.70;;;;;;4990233;28;20053;-70
2023/01/01 11:43:21;;;;;;;0.00;0.00;;;11.00;85.70;;;;;;4988695;28;20074;-70
2023/01/01 11:45:48;;;;;;;0.00;0.00;;;11.10;85.70;;;;;;4982774;28;20042;-71
2023/01/01 11:48:16;;;;;;;0.10;0.10;;;11.10;85.80;;;;;;5006130;28;20180;-71
2023/01/01 11:50:51;;;;;;;0.00;0.00;;;11.10;85.90;;;;;;5001687;28;20084;-72
2023/01/01 11:53:19;;;;;;;0.43;0.43;;;11.10;86.00;;;;;;4975679;28;20049;-71
2023/01/01 11:55:51;;;;;;;0.00;0.00;;;11.10;86.00;;;;;;4989843;28;20050;-70
2023/01/01 11:58:21;;;;;;;0.00;0.00;;;11.00;85.90;;;;;;5000404;28;20045;-71
2023/01/01 12:00:49;;;;;;;0.10;0.10;;;11.00;86.00;;;;;;5004925;28;20046;-71
2023/01/01 12:03:32;;;;;;;0.00;0.00;;;11.00;86.10;;;;;;4997605;28;20092;-71
2023/01/01 12:06:02;;;;;;;0.00;0.00;;;11.00;86.00;;;;;;4995593;28;20518;-71
2023/01/01 12:08:36;;;;;;;0.15;0.15;;;11.00;86.00;;;;;;5006790;28;20530;-71
2023/01/01 12:11:30;;;;;;;2.20;1.00;;;11.00;86.10;;;;;;5013089;28;20124;-71
2023/01/01 12:14:12;;;;;;;0.00;0.00;;;10.90;85.80;;;;;;5010716;28;20050;-71
2023/01/01 12:17:01;;;;;;;0.00;0.00;;;10.90;85.90;;;;;;5011180;28;20050;-71
2023/01/01 12:19:34;;;;;;;0.00;0.00;;;10.90;86.10;;;;;;4992401;28;20466;-70
2023/01/01 12:22:00;;;;;;;0.00;0.00;;;10.90;86.10;;;;;;5000833;28;20415;-70
2023/01/01 12:24:32;;;;;;;0.00;0.00;;;10.90;86.10;;;;;;4997361;28;20038;-71
2023/01/01 12:27:05;;;;;;;0.00;0.00;;;10.90;86.40;;;;;;4998115;28;20057;-71
2023/01/01 12:29:47;;;;;;;0.00;0.00;;;10.90;86.40;;;;;;5001129;28;20073;-70
2023/01/01 12:32:31;;;;;;;;;;;11.00;86.60;;;;;;5003773;28;20069;-70
2023/01/01 12:35:06;;;;;;;0.00;0.00;;;11.00;86.60;;;;;;5002808;28;19925;-70
2023/01/01 12:37:50;;;;;;;0.00;0.00;;;11.10;86.70;;;;;;5000111;28;20569;-69
2023/01/01 12:40:37;;;;;;;0.00;0.00;;;11.10;86.70;;;;;;4999560;28;20128;-69
2023/01/01 12:43:16;;;;;;;0.00;0.00;;;11.10;86.70;;;;;;5008475;28;20157;-70
2023/01/01 12:45:54;;;;;;;0.00;0.00;;;11.10;86.70;;;;;;5008218;28;20532;-72
2023/01/01 12:48:46;;;;;;;0.00;0.00;;;11.20;86.50;;;;;;5005187;28;20058;-72
2023/01/01 12:51:55;;;;;;;0.00;0.00;;;11.20;86.70;;;;;;5010570;28;20041;-70
2023/01/01 12:55:05;;;;;;;0.00;0.00;;;11.30;86.60;;;;;;4960583;28;20142;-71
2023/01/01 12:57:33;;;;;;;0.00;0.00;;;11.30;86.70;;;;;;5011268;28;20045;-72
2023/01/01 13:00:03;;;;;;;0.10;0.10;;;11.40;86.60;;;;;;5010618;28;20054;-72
2023/01/01 13:02:33;;;;;;;0.20;0.20;;;11.50;86.30;;;;;;5010873;28;20034;-72
2023/01/01 13:05:04;;;;;;;0.00;0.00;;;11.40;86.30;;;;;;4992640;28;20062;-72
2023/01/01 13:07:35;;;;;;;0.00;0.00;;;11.50;86.10;;;;;;4976930;28;20487;-69
2023/01/01 13:10:19;;;;;;;0.77;0.70;;;11.50;85.90;;;;;;4993497;28;20068;-70